createdAt,value
2018-09-11T00:00:16.103Z,16.04
2018-09-11T00:01:16.077Z,16.01
2018-09-11T00:02:16.082Z,16.02
2018-09-11T00:03:16.072Z,16.05
2018-09-11T00:04:16.044Z,16.05
2018-09-11T00:05:16.032Z,15.98
2018-09-11T00:06:16.060Z,16.04
2018-09-11T00:07:16.021Z,16.02
2018-09-11T00:08:15.999Z,16.02
2018-09-11T00:09:23.563Z,15.97
2018-09-11T00:10:15.979Z,16.01
2018-09-11T00:11:15.994Z,16.04
2018-09-11T00:12:15.972Z,15.95
2018-09-11T00:13:16.027Z,15.90
2018-09-11T00:14:15.938Z,15.88
2018-09-11T00:15:15.922Z,15.91
2018-09-11T00:16:15.982Z,15.97
2018-09-11T00:17:15.941Z,15.88
2018-09-11T00:18:15.906Z,15.92
2018-09-11T00:19:15.908Z,15.95
2018-09-11T00:20:15.864Z,16.04
2018-09-11T00:21:15.860Z,16.02
2018-09-11T00:22:15.872Z,15.94
2018-09-11T00:23:15.834Z,15.97
2018-09-11T00:24:15.931Z,15.92
2018-09-11T00:25:15.849Z,15.98
2018-09-11T00:26:15.913Z,16.00
2018-09-11T00:27:15.807Z,15.92
2018-09-11T00:28:23.716Z,15.84
2018-09-11T00:29:15.797Z,15.92
2018-09-11T00:30:15.757Z,15.90
2018-09-11T00:31:15.773Z,15.98
2018-09-11T00:32:15.734Z,15.95
2018-09-11T00:33:15.725Z,15.90
2018-09-11T00:34:15.743Z,15.88
2018-09-11T00:35:15.726Z,15.86
2018-09-11T00:36:15.779Z,15.91
2018-09-11T00:37:15.716Z,15.92
2018-09-11T00:38:23.322Z,15.90
2018-09-11T00:39:15.677Z,15.90
2018-09-11T00:40:15.643Z,15.92
2018-09-11T00:41:15.647Z,15.88
2018-09-11T00:42:15.624Z,16.01
2018-09-11T00:43:15.630Z,15.92
2018-09-11T00:44:15.625Z,15.95
2018-09-11T00:45:15.688Z,15.91
2018-09-11T00:46:15.633Z,15.95
2018-09-11T00:47:15.614Z,15.90
2018-09-11T00:48:24.933Z,15.90
2018-09-11T00:49:15.556Z,15.94
2018-09-11T00:50:15.609Z,15.88
2018-09-11T00:51:15.563Z,15.97
2018-09-11T00:52:15.546Z,15.86
2018-09-11T00:53:15.498Z,15.91
2018-09-11T00:54:15.572Z,15.92
2018-09-11T00:55:15.475Z,15.88
2018-09-11T00:56:15.465Z,15.91
2018-09-11T00:57:15.475Z,15.86
2018-09-11T00:58:24.406Z,15.91
2018-09-11T00:59:15.451Z,15.86
2018-09-11T01:00:15.493Z,16.00
2018-09-11T01:01:15.433Z,15.94
2018-09-11T01:02:15.433Z,15.88
2018-09-11T01:03:15.399Z,15.94
2018-09-11T01:04:15.381Z,15.95
2018-09-11T01:05:15.412Z,15.95
2018-09-11T01:06:15.358Z,15.88
2018-09-11T01:07:15.341Z,15.94
2018-09-11T01:08:15.346Z,15.90
2018-09-11T01:09:15.323Z,15.80
2018-09-11T01:10:15.415Z,15.86
2018-09-11T01:11:15.331Z,15.84
2018-09-11T01:12:15.288Z,15.86
2018-09-11T01:13:15.277Z,15.84
2018-09-11T01:14:15.265Z,15.82
2018-09-11T01:15:15.317Z,15.73
2018-09-11T01:16:15.242Z,15.75
2018-09-11T01:17:15.323Z,15.80
2018-09-11T01:18:15.224Z,15.73
2018-09-11T01:19:15.217Z,15.68
2018-09-11T01:20:15.199Z,15.70
2018-09-11T01:21:15.190Z,15.72
2018-09-11T01:22:15.177Z,15.67
2018-09-11T01:23:15.188Z,15.64
2018-09-11T01:24:15.201Z,15.68
2018-09-11T01:25:15.156Z,15.58
2018-09-11T01:26:15.132Z,15.75
2018-09-11T01:27:23.289Z,15.65
2018-09-11T01:28:15.142Z,15.72
2018-09-11T01:29:15.170Z,15.64
2018-09-11T01:30:15.161Z,15.70
2018-09-11T01:31:15.154Z,15.64
2018-09-11T01:32:15.083Z,15.65
2018-09-11T01:33:15.054Z,15.59
2018-09-11T01:34:15.067Z,15.65
2018-09-11T01:35:15.033Z,15.57
2018-09-11T01:36:15.073Z,15.62
2018-09-11T01:37:25.396Z,15.57
2018-09-11T01:38:15.052Z,15.61
2018-09-11T01:39:15.014Z,15.65
2018-09-11T01:40:14.979Z,15.55
2018-09-11T01:41:15.024Z,15.51
2018-09-11T01:42:14.952Z,15.59
2018-09-11T01:43:15.063Z,15.64
2018-09-11T01:44:15.006Z,15.61
2018-09-11T01:45:14.939Z,15.65
2018-09-11T01:46:14.910Z,15.64
2018-09-11T01:47:14.930Z,15.58
2018-09-11T01:48:14.892Z,15.59
2018-09-11T01:49:14.916Z,15.59
2018-09-11T01:50:14.888Z,15.65
2018-09-11T01:51:14.882Z,15.54
2018-09-11T01:52:14.846Z,15.59
2018-09-11T01:53:14.831Z,15.59
2018-09-11T01:54:14.822Z,15.58
2018-09-11T01:55:14.831Z,15.62
2018-09-11T01:56:14.816Z,15.61
2018-09-11T01:57:24.002Z,15.58
2018-09-11T01:58:14.812Z,15.46
2018-09-11T01:59:14.767Z,15.47
2018-09-11T02:00:14.807Z,15.54
2018-09-11T02:01:14.754Z,15.49
2018-09-11T02:02:14.774Z,15.47
2018-09-11T02:03:14.774Z,15.47
2018-09-11T02:04:14.711Z,15.49
2018-09-11T02:05:14.727Z,15.58
2018-09-11T02:06:14.755Z,15.59
2018-09-11T02:07:14.679Z,15.59
2018-09-11T02:08:14.675Z,15.47
2018-09-11T02:09:14.686Z,15.51
2018-09-11T02:10:14.797Z,15.40
2018-09-11T02:11:14.633Z,15.42
2018-09-11T02:12:14.680Z,15.43
2018-09-11T02:13:14.624Z,15.42
2018-09-11T02:14:14.601Z,15.43
2018-09-11T02:15:14.598Z,15.42
2018-09-11T02:16:22.598Z,15.29
2018-09-11T02:17:14.589Z,15.37
2018-09-11T02:18:14.611Z,15.31
2018-09-11T02:19:14.622Z,15.36
2018-09-11T02:20:14.536Z,15.37
2018-09-11T02:21:14.523Z,15.36
2018-09-11T02:22:14.511Z,15.33
2018-09-11T02:23:14.540Z,15.35
2018-09-11T02:24:14.511Z,15.28
2018-09-11T02:25:14.481Z,15.27
2018-09-11T02:26:22.590Z,15.28
2018-09-11T02:27:14.539Z,15.25
2018-09-11T02:28:14.500Z,15.33
2018-09-11T02:29:14.462Z,15.27
2018-09-11T02:30:14.490Z,15.29
2018-09-11T02:31:14.417Z,15.27
2018-09-11T02:32:14.400Z,15.22
2018-09-11T02:33:14.397Z,15.17
2018-09-11T02:34:14.378Z,15.24
2018-09-11T02:35:14.367Z,15.28
2018-09-11T02:36:14.390Z,15.19
2018-09-11T02:37:14.346Z,15.19
2018-09-11T02:38:14.332Z,15.11
2018-09-11T02:39:14.320Z,15.19
2018-09-11T02:40:14.312Z,15.10
2018-09-11T02:41:14.314Z,15.09
2018-09-11T02:42:14.309Z,15.15
2018-09-11T02:43:14.277Z,15.09
2018-09-11T02:44:14.268Z,15.14
2018-09-11T02:45:14.272Z,15.15
2018-09-11T02:46:21.929Z,15.10
2018-09-11T02:47:14.284Z,15.10
2018-09-11T02:48:14.331Z,15.14
2018-09-11T02:49:14.233Z,15.09
2018-09-11T02:50:14.209Z,15.02
2018-09-11T02:51:14.255Z,14.97
2018-09-11T02:52:14.179Z,15.07
2018-09-11T02:53:14.187Z,14.97
2018-09-11T02:54:14.189Z,15.06
2018-09-11T02:55:14.211Z,14.99
2018-09-11T02:56:14.135Z,15.06
2018-09-11T02:57:14.167Z,15.00
2018-09-11T02:58:14.113Z,14.97
2018-09-11T02:59:14.103Z,14.96
2018-09-11T03:00:14.101Z,15.00
2018-09-11T03:01:14.081Z,15.02
2018-09-11T03:02:14.080Z,15.06
2018-09-11T03:03:14.092Z,15.10
2018-09-11T03:04:14.048Z,15.11
2018-09-11T03:05:14.037Z,15.15
2018-09-11T03:06:14.055Z,15.18
2018-09-11T03:07:14.050Z,15.11
2018-09-11T03:08:14.000Z,15.14
2018-09-11T03:09:14.034Z,15.14
2018-09-11T03:10:13.979Z,15.11
2018-09-11T03:11:13.970Z,15.15
2018-09-11T03:12:14.012Z,15.02
2018-09-11T03:13:13.946Z,15.04
2018-09-11T03:14:13.934Z,15.02
2018-09-11T03:15:21.895Z,15.04
2018-09-11T03:16:13.953Z,15.09
2018-09-11T03:17:13.910Z,15.09
2018-09-11T03:18:13.949Z,15.09
2018-09-11T03:19:13.948Z,15.07
2018-09-11T03:20:13.903Z,15.03
2018-09-11T03:21:14.005Z,15.02
2018-09-11T03:22:13.847Z,15.03
2018-09-11T03:23:13.858Z,15.15
2018-09-11T03:24:13.862Z,15.06
2018-09-11T03:25:13.825Z,15.09
2018-09-11T03:26:13.806Z,15.11
2018-09-11T03:27:13.796Z,15.10
2018-09-11T03:28:13.796Z,15.11
2018-09-11T03:29:13.768Z,15.18
2018-09-11T03:30:13.806Z,15.17
2018-09-11T03:31:13.748Z,15.22
2018-09-11T03:32:13.737Z,15.24
2018-09-11T03:33:13.726Z,15.24
2018-09-11T03:34:13.714Z,15.24
2018-09-11T03:35:13.702Z,15.24
2018-09-11T03:36:13.710Z,15.21
2018-09-11T03:37:13.686Z,15.21
2018-09-11T03:38:13.667Z,15.22
2018-09-11T03:39:13.710Z,15.24
2018-09-11T03:40:13.723Z,15.18
2018-09-11T03:41:13.637Z,15.19
2018-09-11T03:42:13.642Z,15.17
2018-09-11T03:43:13.697Z,15.18
2018-09-11T03:44:13.631Z,15.28
2018-09-11T03:45:21.578Z,15.21
2018-09-11T03:46:13.616Z,15.21
2018-09-11T03:47:13.576Z,15.22
2018-09-11T03:48:13.643Z,15.27
2018-09-11T03:49:13.560Z,15.21
2018-09-11T03:50:13.539Z,15.25
2018-09-11T03:51:13.537Z,15.21
2018-09-11T03:52:13.515Z,15.28
2018-09-11T03:53:13.596Z,15.21
2018-09-11T03:54:13.547Z,15.21
2018-09-11T03:55:21.466Z,15.24
2018-09-11T03:56:13.476Z,15.21
2018-09-11T03:57:13.509Z,15.21
2018-09-11T03:58:13.466Z,15.21
2018-09-11T03:59:13.514Z,15.21
2018-09-11T04:00:13.435Z,15.18
2018-09-11T04:01:13.425Z,15.25
2018-09-11T04:02:13.404Z,15.17
2018-09-11T04:03:13.410Z,15.28
2018-09-11T04:04:13.422Z,15.18
2018-09-11T04:05:13.371Z,15.17
2018-09-11T04:06:13.359Z,15.18
2018-09-11T04:07:13.400Z,15.15
2018-09-11T04:08:13.338Z,15.21
2018-09-11T04:09:13.384Z,15.17
2018-09-11T04:10:13.320Z,15.11
2018-09-11T04:11:13.322Z,15.14
2018-09-11T04:12:13.295Z,15.15
2018-09-11T04:13:13.282Z,15.07
2018-09-11T04:14:22.668Z,15.04
2018-09-11T04:15:13.314Z,15.00
2018-09-11T04:16:13.251Z,15.03
2018-09-11T04:17:13.241Z,15.04
2018-09-11T04:18:13.332Z,15.09
2018-09-11T04:19:13.246Z,15.02
2018-09-11T04:20:13.236Z,14.96
2018-09-11T04:21:13.209Z,14.99
2018-09-11T04:22:13.189Z,14.94
2018-09-11T04:23:13.171Z,15.07
2018-09-11T04:24:13.176Z,15.02
2018-09-11T04:25:13.169Z,15.06
2018-09-11T04:26:13.156Z,14.97
2018-09-11T04:27:13.133Z,15.00
2018-09-11T04:28:13.150Z,14.94
2018-09-11T04:29:13.106Z,14.97
2018-09-11T04:30:13.097Z,15.02
2018-09-11T04:31:13.120Z,14.99
2018-09-11T04:32:13.094Z,14.99
2018-09-11T04:33:13.092Z,14.97
2018-09-11T04:34:13.051Z,14.99
2018-09-11T04:35:13.043Z,14.99
2018-09-11T04:36:13.084Z,15.04
2018-09-11T04:37:13.017Z,14.99
2018-09-11T04:38:13.013Z,15.04
2018-09-11T04:39:12.994Z,15.02
2018-09-11T04:40:13.033Z,15.00
2018-09-11T04:41:12.973Z,15.00
2018-09-11T04:42:12.987Z,15.00
2018-09-11T04:43:20.865Z,14.99
2018-09-11T04:44:12.994Z,15.06
2018-09-11T04:45:13.051Z,14.99
2018-09-11T04:46:12.926Z,14.99
2018-09-11T04:47:12.925Z,15.03
2018-09-11T04:48:12.926Z,15.03
2018-09-11T04:49:12.915Z,15.07
2018-09-11T04:50:12.962Z,15.02
2018-09-11T04:51:12.901Z,15.02
2018-09-11T04:52:12.888Z,15.06
2018-09-11T04:53:12.874Z,15.17
2018-09-11T04:54:12.866Z,14.99
2018-09-11T04:55:12.818Z,14.99
2018-09-11T04:56:12.888Z,15.03
2018-09-11T04:57:12.796Z,14.97
2018-09-11T04:58:12.785Z,15.03
2018-09-11T04:59:12.795Z,15.03
2018-09-11T05:00:12.784Z,15.03
2018-09-11T05:01:12.767Z,15.04
2018-09-11T05:02:12.744Z,14.99
2018-09-11T05:03:20.773Z,14.99
2018-09-11T05:04:12.721Z,15.06
2018-09-11T05:05:12.752Z,15.03
2018-09-11T05:06:12.721Z,14.99
2018-09-11T05:07:12.687Z,14.94
2018-09-11T05:08:12.734Z,14.99
2018-09-11T05:09:12.664Z,14.91
2018-09-11T05:10:12.656Z,14.96
2018-09-11T05:11:12.646Z,14.96
2018-09-11T05:12:12.650Z,15.03
2018-09-11T05:13:20.651Z,15.00
2018-09-11T05:14:12.617Z,15.00
2018-09-11T05:15:12.603Z,14.99
2018-09-11T05:16:12.606Z,15.03
2018-09-11T05:17:12.584Z,15.02
2018-09-11T05:18:12.653Z,14.99
2018-09-11T05:19:12.711Z,15.04
2018-09-11T05:20:12.690Z,15.09
2018-09-11T05:21:12.536Z,15.02
2018-09-11T05:22:12.529Z,15.00
2018-09-11T05:23:12.544Z,15.03
2018-09-11T05:24:12.499Z,15.06
2018-09-11T05:25:12.578Z,14.97
2018-09-11T05:26:12.484Z,14.99
2018-09-11T05:27:12.510Z,15.02
2018-09-11T05:28:12.467Z,15.03
2018-09-11T05:29:12.471Z,15.17
2018-09-11T05:30:12.435Z,15.09
2018-09-11T05:31:12.424Z,15.14
2018-09-11T05:32:12.412Z,15.06
2018-09-11T05:33:20.478Z,15.17
2018-09-11T05:34:12.496Z,15.14
2018-09-11T05:35:12.443Z,15.15
2018-09-11T05:36:12.396Z,15.18
2018-09-11T05:37:12.367Z,15.18
2018-09-11T05:38:12.344Z,15.24
2018-09-11T05:39:12.452Z,15.22
2018-09-11T05:40:12.475Z,15.22
2018-09-11T05:41:12.333Z,15.19
2018-09-11T05:42:12.321Z,15.25
2018-09-11T05:43:12.292Z,15.22
2018-09-11T05:44:12.278Z,15.17
2018-09-11T05:45:12.279Z,15.22
2018-09-11T05:46:12.261Z,15.18
2018-09-11T05:47:12.392Z,15.22
2018-09-11T05:48:12.234Z,15.28
2018-09-11T05:49:12.223Z,15.27
2018-09-11T05:50:12.212Z,15.24
2018-09-11T05:51:12.219Z,15.18
2018-09-11T05:52:22.247Z,15.27
2018-09-11T05:53:12.246Z,15.35
2018-09-11T05:54:12.253Z,15.22
2018-09-11T05:55:12.207Z,15.28
2018-09-11T05:56:12.189Z,15.28
2018-09-11T05:57:12.160Z,15.33
2018-09-11T05:58:12.237Z,15.37
2018-09-11T05:59:12.139Z,15.33
2018-09-11T06:00:12.112Z,15.37
2018-09-11T06:01:12.096Z,15.40
2018-09-11T06:02:19.999Z,15.42
2018-09-11T06:03:12.162Z,15.35
2018-09-11T06:04:12.102Z,15.43
2018-09-11T06:05:12.052Z,15.44
2018-09-11T06:06:12.041Z,15.44
2018-09-11T06:07:12.134Z,15.47
2018-09-11T06:08:12.065Z,15.49
2018-09-11T06:09:12.035Z,15.64
2018-09-11T06:10:12.014Z,15.54
2018-09-11T06:11:11.982Z,15.62
2018-09-11T06:12:19.952Z,15.51
2018-09-11T06:13:11.974Z,15.55
2018-09-11T06:14:11.950Z,15.55
2018-09-11T06:15:11.972Z,15.59
2018-09-11T06:16:12.005Z,15.58
2018-09-11T06:17:11.925Z,15.51
2018-09-11T06:18:11.910Z,15.68
2018-09-11T06:19:11.921Z,15.59
2018-09-11T06:20:11.881Z,15.62
2018-09-11T06:21:11.915Z,15.59
2018-09-11T06:22:21.349Z,15.61
2018-09-11T06:23:11.861Z,15.70
2018-09-11T06:24:11.840Z,15.68
2018-09-11T06:25:11.840Z,15.72
2018-09-11T06:26:11.833Z,15.70
2018-09-11T06:27:11.993Z,15.67
2018-09-11T06:28:11.827Z,15.72
2018-09-11T06:29:11.897Z,15.65
2018-09-11T06:30:11.801Z,15.76
2018-09-11T06:31:11.763Z,15.75
2018-09-11T06:32:11.761Z,15.76
2018-09-11T06:33:11.740Z,15.80
2018-09-11T06:34:11.726Z,15.91
2018-09-11T06:35:11.746Z,15.82
2018-09-11T06:36:11.726Z,15.91
2018-09-11T06:37:11.718Z,15.94
2018-09-11T06:38:11.684Z,15.91
2018-09-11T06:39:11.674Z,15.92
2018-09-11T06:40:11.685Z,15.97
2018-09-11T06:41:11.712Z,15.88
2018-09-11T06:42:11.754Z,15.90
2018-09-11T06:43:11.629Z,16.00
2018-09-11T06:44:11.633Z,15.94
2018-09-11T06:45:11.623Z,15.91
2018-09-11T06:46:11.595Z,16.02
2018-09-11T06:47:11.589Z,16.00
2018-09-11T06:48:11.599Z,16.01
2018-09-11T06:49:11.563Z,15.97
2018-09-11T06:50:11.572Z,16.00
2018-09-11T06:51:11.555Z,16.12
2018-09-11T06:52:20.651Z,16.08
2018-09-11T06:53:11.701Z,16.13
2018-09-11T06:54:11.514Z,16.10
2018-09-11T06:55:11.559Z,16.13
2018-09-11T06:56:11.723Z,16.16
2018-09-11T06:57:11.757Z,16.23
2018-09-11T06:58:11.513Z,16.20
2018-09-11T06:59:11.450Z,16.21
2018-09-11T07:00:11.479Z,16.26
2018-09-11T07:01:11.428Z,16.23
2018-09-11T07:02:19.048Z,16.29
2018-09-11T07:03:11.553Z,16.36
2018-09-11T07:04:11.402Z,16.35
2018-09-11T07:05:11.441Z,16.29
2018-09-11T07:06:11.375Z,16.35
2018-09-11T07:07:11.459Z,16.39
2018-09-11T07:08:11.541Z,16.42
2018-09-11T07:09:11.368Z,16.46
2018-09-11T07:10:11.334Z,16.49
2018-09-11T07:11:11.435Z,16.54
2018-09-11T07:12:11.452Z,16.51
2018-09-11T07:13:11.406Z,16.53
2018-09-11T07:14:11.595Z,16.65
2018-09-11T07:15:11.318Z,16.51
2018-09-11T07:16:11.262Z,16.50
2018-09-11T07:17:11.363Z,16.51
2018-09-11T07:18:11.267Z,16.53
2018-09-11T07:19:11.227Z,16.51
2018-09-11T07:20:11.598Z,16.50
2018-09-11T07:21:11.242Z,16.54
2018-09-11T07:22:18.842Z,16.57
2018-09-11T07:23:11.258Z,16.54
2018-09-11T07:24:11.204Z,16.53
2018-09-11T07:25:11.259Z,16.56
2018-09-11T07:26:11.207Z,16.60
2018-09-11T07:27:11.183Z,16.51
2018-09-11T07:28:11.870Z,16.57
2018-09-11T07:29:11.144Z,16.57
2018-09-11T07:30:11.137Z,16.54
2018-09-11T07:31:11.124Z,16.53
2018-09-11T07:32:11.851Z,16.58
2018-09-11T07:33:11.409Z,16.57
2018-09-11T07:34:11.093Z,16.57
2018-09-11T07:35:11.087Z,16.64
2018-09-11T07:36:11.070Z,16.66
2018-09-11T07:37:11.337Z,16.71
2018-09-11T07:38:11.950Z,16.71
2018-09-11T07:39:11.420Z,16.76
2018-09-11T07:40:11.028Z,16.69
2018-09-11T07:41:11.873Z,16.69
2018-09-11T07:42:11.001Z,16.66
2018-09-11T07:43:10.989Z,16.66
2018-09-11T07:44:11.063Z,16.61
2018-09-11T07:45:11.852Z,16.81
2018-09-11T07:46:10.958Z,16.78
2018-09-11T07:47:10.944Z,16.78
2018-09-11T07:48:11.853Z,16.83
2018-09-11T07:49:10.948Z,16.86
2018-09-11T07:50:10.963Z,16.86
2018-09-11T07:51:18.900Z,16.86
2018-09-11T07:52:10.925Z,16.91
2018-09-11T07:53:11.425Z,17.12
2018-09-11T07:54:10.901Z,17.06
2018-09-11T07:55:11.029Z,17.04
2018-09-11T07:56:10.976Z,17.02
2018-09-11T07:57:11.180Z,17.11
2018-09-11T07:58:10.867Z,17.12
2018-09-11T07:59:10.794Z,17.04
2018-09-11T08:00:10.833Z,17.04
2018-09-11T08:01:10.808Z,17.08
2018-09-11T08:02:10.750Z,17.11
2018-09-11T08:03:10.839Z,17.14
2018-09-11T08:04:10.775Z,17.11
2018-09-11T08:05:10.770Z,17.15
2018-09-11T08:06:10.708Z,17.15
2018-09-11T08:07:10.697Z,17.24
2018-09-11T08:08:10.681Z,17.26
2018-09-11T08:09:10.784Z,17.34
2018-09-11T08:10:10.679Z,17.31
2018-09-11T08:11:18.759Z,17.30
2018-09-11T08:12:10.662Z,17.36
2018-09-11T08:13:10.690Z,17.34
2018-09-11T08:14:10.769Z,17.56
2018-09-11T08:15:10.976Z,17.60
2018-09-11T08:16:10.658Z,17.60
2018-09-11T08:17:10.583Z,17.52
2018-09-11T08:18:10.571Z,17.57
2018-09-11T08:19:10.615Z,17.63
2018-09-11T08:20:10.568Z,17.56
2018-09-11T08:21:10.541Z,17.65
2018-09-11T08:22:10.588Z,17.74
2018-09-11T08:23:10.517Z,17.68
2018-09-11T08:24:10.520Z,17.64
2018-09-11T08:25:10.492Z,17.72
2018-09-11T08:26:10.485Z,17.67
2018-09-11T08:27:18.467Z,17.67
2018-09-11T08:28:10.642Z,17.72
2018-09-11T08:29:10.683Z,17.68
2018-09-11T08:30:10.454Z,17.76
2018-09-11T08:31:10.636Z,17.71
2018-09-11T08:32:10.440Z,17.78
2018-09-11T08:33:10.445Z,17.78
2018-09-11T08:34:10.428Z,17.85
2018-09-11T08:35:10.390Z,17.79
2018-09-11T08:36:10.660Z,17.80
2018-09-11T08:37:10.461Z,17.98
2018-09-11T08:38:10.457Z,18.00
2018-09-11T08:39:10.339Z,18.00
2018-09-11T08:40:10.386Z,18.07
2018-09-11T08:41:10.352Z,17.95
2018-09-11T08:42:10.410Z,18.05
2018-09-11T08:43:10.385Z,17.98
2018-09-11T08:44:10.324Z,18.03
2018-09-11T08:45:10.290Z,18.08
2018-09-11T08:46:10.307Z,18.08
2018-09-11T08:47:19.694Z,18.05
2018-09-11T08:48:10.280Z,18.03
2018-09-11T08:49:10.231Z,17.95
2018-09-11T08:50:10.236Z,18.00
2018-09-11T08:51:10.278Z,17.98
2018-09-11T08:52:10.359Z,18.01
2018-09-11T08:53:10.247Z,18.08
2018-09-11T08:54:10.519Z,18.25
2018-09-11T08:55:10.165Z,18.23
2018-09-11T08:56:10.230Z,18.26
2018-09-11T08:57:10.191Z,18.40
2018-09-11T08:58:10.159Z,18.43
2018-09-11T08:59:10.122Z,18.43
2018-09-11T09:00:10.136Z,18.49
2018-09-11T09:01:10.117Z,18.56
2018-09-11T09:02:10.085Z,18.52
2018-09-11T09:03:10.169Z,18.45
2018-09-11T09:04:10.067Z,18.49
2018-09-11T09:05:10.052Z,18.50
2018-09-11T09:06:10.110Z,18.70
2018-09-11T09:07:10.032Z,18.73
2018-09-11T09:08:10.025Z,18.78
2018-09-11T09:09:10.176Z,18.88
2018-09-11T09:10:10.218Z,18.88
2018-09-11T09:11:09.989Z,18.92
2018-09-11T09:12:09.979Z,19.08
2018-09-11T09:13:09.966Z,19.02
2018-09-11T09:14:10.066Z,19.09
2018-09-11T09:15:10.004Z,19.12
2018-09-11T09:16:18.052Z,19.11
2018-09-11T09:17:09.959Z,19.11
2018-09-11T09:18:09.984Z,19.07
2018-09-11T09:19:09.938Z,19.15
2018-09-11T09:20:10.115Z,19.14
2018-09-11T09:21:10.018Z,19.18
2018-09-11T09:22:10.134Z,19.14
2018-09-11T09:23:09.899Z,19.24
2018-09-11T09:24:09.844Z,19.27
2018-09-11T09:25:09.870Z,19.12
2018-09-11T09:26:21.273Z,19.07
2018-09-11T09:27:09.859Z,19.04
2018-09-11T09:28:09.804Z,19.12
2018-09-11T09:29:09.850Z,19.16
2018-09-11T09:30:09.860Z,19.07
2018-09-11T09:31:09.806Z,19.18
2018-09-11T09:32:09.869Z,19.11
2018-09-11T09:33:09.766Z,19.09
2018-09-11T09:34:09.734Z,19.30
2018-09-11T09:35:09.743Z,19.37
2018-09-11T09:36:09.712Z,19.37
2018-09-11T09:37:09.701Z,19.41
2018-09-11T09:38:09.749Z,19.49
2018-09-11T09:39:09.679Z,19.51
2018-09-11T09:40:09.673Z,19.41
2018-09-11T09:41:09.698Z,19.47
2018-09-11T09:42:09.649Z,19.33
2018-09-11T09:43:09.751Z,19.34
2018-09-11T09:44:09.648Z,19.18
2018-09-11T09:45:17.526Z,19.31
2018-09-11T09:46:09.692Z,19.27
2018-09-11T09:47:09.591Z,19.31
2018-09-11T09:48:09.682Z,19.41
2018-09-11T09:49:09.682Z,19.31
2018-09-11T09:50:09.689Z,19.40
2018-09-11T09:51:09.889Z,19.51
2018-09-11T09:52:09.582Z,19.63
2018-09-11T09:53:09.545Z,19.69
2018-09-11T09:54:09.545Z,19.74
2018-09-11T09:55:09.574Z,19.89
2018-09-11T09:56:09.520Z,19.94
2018-09-11T09:57:09.496Z,20.02
2018-09-11T09:58:09.476Z,19.85
2018-09-11T09:59:09.522Z,19.89
2018-09-11T10:00:09.497Z,20.02
2018-09-11T10:01:09.441Z,20.25
2018-09-11T10:02:09.432Z,20.14
2018-09-11T10:03:09.417Z,20.10
2018-09-11T10:04:09.457Z,20.36
2018-09-11T10:05:09.417Z,20.58
2018-09-11T10:06:09.386Z,20.75
2018-09-11T10:07:09.376Z,20.75
2018-09-11T10:08:09.365Z,20.84
2018-09-11T10:09:09.351Z,21.03
2018-09-11T10:10:09.451Z,20.82
2018-09-11T10:11:09.342Z,20.81
2018-09-11T10:12:09.318Z,20.62
2018-09-11T10:13:18.626Z,20.60
2018-09-11T10:14:09.334Z,20.55
2018-09-11T10:15:09.309Z,20.72
2018-09-11T10:16:09.352Z,20.92
2018-09-11T10:17:09.329Z,21.02
2018-09-11T10:18:09.259Z,21.20
2018-09-11T10:19:09.295Z,21.32
2018-09-11T10:20:09.275Z,21.24
2018-09-11T10:21:09.339Z,21.32
2018-09-11T10:22:09.313Z,21.30
2018-09-11T10:23:09.543Z,21.33
2018-09-11T10:24:09.241Z,21.40
2018-09-11T10:25:09.178Z,21.18
2018-09-11T10:26:09.206Z,21.22
2018-09-11T10:27:09.224Z,21.24
2018-09-11T10:28:09.202Z,21.02
2018-09-11T10:29:09.135Z,21.02
2018-09-11T10:30:09.244Z,21.24
2018-09-11T10:31:09.113Z,21.33
2018-09-11T10:32:09.098Z,21.29
2018-09-11T10:33:18.673Z,21.24
2018-09-11T10:34:09.107Z,21.30
2018-09-11T10:35:09.192Z,21.22
2018-09-11T10:36:09.180Z,21.36
2018-09-11T10:37:09.202Z,21.22
2018-09-11T10:38:09.062Z,21.30
2018-09-11T10:39:09.030Z,21.25
2018-09-11T10:40:09.053Z,21.32
2018-09-11T10:41:09.040Z,21.45
2018-09-11T10:42:08.988Z,21.37
2018-09-11T10:43:17.090Z,21.40
2018-09-11T10:44:09.051Z,21.61
2018-09-11T10:45:08.957Z,21.69
2018-09-11T10:46:09.012Z,21.73
2018-09-11T10:47:08.968Z,21.77
2018-09-11T10:48:08.929Z,21.79
2018-09-11T10:49:09.112Z,21.79
2018-09-11T10:50:08.903Z,21.79
2018-09-11T10:51:08.890Z,21.83
2018-09-11T10:52:18.191Z,22.00
2018-09-11T10:53:08.923Z,22.32
2018-09-11T10:54:08.973Z,22.29
2018-09-11T10:55:08.938Z,22.44
2018-09-11T10:56:09.190Z,22.39
2018-09-11T10:57:08.884Z,22.55
2018-09-11T10:58:08.862Z,22.68
2018-09-11T10:59:08.806Z,22.78
2018-09-11T11:00:08.790Z,22.81
2018-09-11T11:01:08.819Z,22.72
2018-09-11T11:02:08.768Z,22.80
2018-09-11T11:03:08.882Z,22.81
2018-09-11T11:04:08.758Z,22.78
2018-09-11T11:05:08.800Z,22.75
2018-09-11T11:06:08.723Z,22.80
2018-09-11T11:07:08.708Z,22.87
2018-09-11T11:08:08.787Z,22.98
2018-09-11T11:09:08.708Z,23.23
2018-09-11T11:10:08.708Z,23.18
2018-09-11T11:11:08.665Z,22.98
2018-09-11T11:12:17.049Z,22.96
2018-09-11T11:13:08.775Z,22.83
2018-09-11T11:14:08.665Z,22.76
2018-09-11T11:15:08.713Z,22.76
2018-09-11T11:16:08.640Z,22.80
2018-09-11T11:17:08.664Z,22.94
2018-09-11T11:18:08.619Z,22.93
2018-09-11T11:19:08.610Z,23.12
2018-09-11T11:20:08.722Z,23.13
2018-09-11T11:21:08.642Z,23.10
2018-09-11T11:22:16.778Z,23.09
2018-09-11T11:23:08.572Z,23.03
2018-09-11T11:24:08.575Z,23.12
2018-09-11T11:25:08.526Z,23.06
2018-09-11T11:26:08.528Z,23.09
2018-09-11T11:27:08.566Z,23.09
2018-09-11T11:28:08.539Z,23.02
2018-09-11T11:29:08.519Z,23.00
2018-09-11T11:30:08.482Z,22.96
2018-09-11T11:31:08.614Z,22.96
2018-09-11T11:32:08.492Z,22.96
2018-09-11T11:33:08.718Z,22.94
2018-09-11T11:34:08.409Z,23.02
2018-09-11T11:35:08.437Z,23.08
2018-09-11T11:36:08.474Z,23.13
2018-09-11T11:37:08.500Z,23.25
2018-09-11T11:38:08.456Z,23.12
2018-09-11T11:39:08.355Z,23.23
2018-09-11T11:40:08.421Z,23.32
2018-09-11T11:41:16.492Z,23.25
2018-09-11T11:42:08.394Z,23.34
2018-09-11T11:43:08.323Z,23.47
2018-09-11T11:44:08.352Z,23.40
2018-09-11T11:45:08.374Z,23.36
2018-09-11T11:46:08.610Z,23.44
2018-09-11T11:47:08.308Z,23.46
2018-09-11T11:48:08.279Z,23.58
2018-09-11T11:49:08.284Z,23.78
2018-09-11T11:50:08.289Z,23.92
2018-09-11T11:51:08.224Z,23.92
2018-09-11T11:52:08.294Z,24.02
2018-09-11T11:53:08.202Z,24.10
2018-09-11T11:54:08.190Z,23.91
2018-09-11T11:55:08.272Z,23.98
2018-09-11T11:56:08.189Z,24.01
2018-09-11T11:57:08.199Z,23.95
2018-09-11T11:58:08.149Z,23.91
2018-09-11T11:59:08.174Z,23.87
2018-09-11T12:00:08.122Z,24.02
2018-09-11T12:01:17.214Z,24.03
2018-09-11T12:02:08.285Z,23.98
2018-09-11T12:03:08.142Z,23.95
2018-09-11T12:04:08.149Z,23.93
2018-09-11T12:05:08.075Z,23.91
2018-09-11T12:06:08.088Z,23.88
2018-09-11T12:07:08.074Z,23.91
2018-09-11T12:08:08.043Z,23.84
2018-09-11T12:09:08.051Z,23.92
2018-09-11T12:10:08.163Z,23.92
2018-09-11T12:11:08.087Z,24.06
2018-09-11T12:12:08.144Z,24.01
2018-09-11T12:13:08.035Z,23.95
2018-09-11T12:14:07.975Z,24.03
2018-09-11T12:15:07.999Z,24.14
2018-09-11T12:16:07.956Z,24.35
2018-09-11T12:17:08.012Z,24.30
2018-09-11T12:18:07.969Z,24.33
2018-09-11T12:19:07.933Z,24.33
2018-09-11T12:20:07.912Z,24.36
2018-09-11T12:21:07.897Z,24.33
2018-09-11T12:22:07.884Z,24.36
2018-09-11T12:23:07.919Z,24.38
2018-09-11T12:24:07.898Z,24.43
2018-09-11T12:25:07.871Z,24.40
2018-09-11T12:26:07.892Z,24.45
2018-09-11T12:27:07.845Z,24.42
2018-09-11T12:28:07.822Z,24.40
2018-09-11T12:29:07.809Z,24.43
2018-09-11T12:30:07.828Z,24.55
2018-09-11T12:32:23.296Z,24.35
2018-09-11T12:33:23.120Z,24.30
2018-09-11T12:34:23.343Z,24.24
2018-09-11T12:35:23.140Z,24.36
2018-09-11T12:36:23.369Z,24.53
2018-09-11T12:37:23.166Z,24.63
2018-09-11T12:38:23.259Z,24.51
2018-09-11T12:39:23.113Z,24.74
2018-09-11T12:40:23.056Z,24.84
2018-09-11T12:41:23.074Z,24.85
2018-09-11T12:42:23.048Z,24.92
2018-09-11T12:43:23.036Z,25.03
2018-09-11T12:44:23.060Z,25.08
2018-09-11T12:45:22.987Z,25.04
2018-09-11T12:46:23.517Z,24.89
2018-09-11T12:47:23.206Z,24.88
2018-09-11T12:48:23.306Z,24.98
2018-09-11T12:49:23.028Z,24.74
2018-09-11T12:50:22.952Z,24.73
2018-09-11T12:51:31.120Z,25.03
2018-09-11T12:52:23.015Z,25.11
2018-09-11T12:53:22.901Z,25.23